Time;durP1;ratioP1;P1;durP2;ratioP2;P2;SDS_P1;SDS_P2;PMS_P1;PMS_P2;Temp;Humidity;BMP_temperature;BMP_pressure;BME280_temperature;BME280_humidity;BME280_pressure;Samples;Min_cycle;Max_cycle;Signal;HPM_P1;HPM_P2
2024/04/18 00:00:23;;;;;;;2.13;0.90;;;;;;;18.49;40.62;101374.13;5397174;26;20018;-69
2024/04/18 00:02:48;;;;;;;1.33;0.80;;;;;;;18.49;40.57;101377.59;5395789;26;20677;-69
2024/04/18 00:05:15;;;;;;;2.63;0.98;;;;;;;18.46;40.18;101369.91;5400457;26;20003;-69
2024/04/18 00:07:41;;;;;;;1.80;0.80;;;;;;;18.57;40.38;101399.94;5400987;26;20515;-70
2024/04/18 00:10:07;;;;;;;2.08;1.00;;;;;;;18.46;40.52;101377.81;5400891;26;20025;-69
2024/04/18 00:12:32;;;;;;;2.65;1.00;;;;;;;18.55;40.42;101391.28;5400433;26;19992;-69
2024/04/18 00:14:57;;;;;;;2.17;0.90;;;;;;;18.51;40.41;101390.66;5398843;26;19991;-68
2024/04/18 00:17:22;;;;;;;1.77;0.90;;;;;;;18.52;40.04;101388.88;5400871;26;20061;-70
2024/04/18 00:19:48;;;;;;;1.77;0.90;;;;;;;18.47;40.14;101391.88;5398811;26;19991;-69
2024/04/18 00:22:13;;;;;;;1.88;0.80;;;;;;;18.33;40.40;101368.31;5399177;26;19999;-70
2024/04/18 00:24:38;;;;;;;2.05;0.90;;;;;;;18.42;40.34;101389.56;5401043;26;20011;-68
2024/04/18 00:27:04;;;;;;;2.17;0.90;;;;;;;18.49;39.81;101409.25;5399796;26;19996;-70
2024/04/18 00:29:29;;;;;;;2.45;0.93;;;;;;;18.38;40.39;101388.09;5398747;26;19995;-68
2024/04/18 00:31:54;;;;;;;1.92;0.90;;;;;;;18.36;40.30;101389.16;5400242;26;20030;-69
2024/04/18 00:34:20;;;;;;;2.50;1.10;;;;;;;18.30;40.16;101379.91;5400469;26;20068;-68
2024/04/18 00:36:45;;;;;;;1.38;0.73;;;;;;;18.23;40.26;101366.34;5400116;26;20797;-70
2024/04/18 00:39:10;;;;;;;1.73;0.75;;;;;;;18.36;40.09;101399.72;5398918;26;19996;-69
2024/04/18 00:41:36;;;;;;;2.05;1.00;;;;;;;18.42;40.15;101415.97;5399975;26;20003;-70
2024/04/18 00:44:01;;;;;;;2.15;0.90;;;;;;;18.43;40.23;101416.78;5400406;26;20004;-68
2024/04/18 00:46:27;;;;;;;1.98;0.80;;;;;;;18.31;40.17;101398.28;5400361;26;20924;-70
2024/04/18 00:48:54;;;;;;;4.60;1.00;;;;;;;18.31;40.18;101397.44;5399287;26;19999;-71
2024/04/18 00:51:20;;;;;;;2.10;0.90;;;;;;;18.41;40.12;101419.53;5400460;26;19991;-68
2024/04/18 00:53:46;;;;;;;2.50;1.00;;;;;;;18.28;40.18;101405.56;5399600;26;20469;-70
2024/04/18 00:56:12;;;;;;;1.70;0.90;;;;;;;18.28;40.38;101413.50;5399097;26;20007;-69
2024/04/18 00:58:38;;;;;;;1.65;0.90;;;;;;;18.27;40.01;101407.34;5397348;26;20004;-70
2024/04/18 01:01:03;;;;;;;3.17;1.00;;;;;;;18.23;40.17;101408.53;5399666;26;20072;-70
2024/04/18 01:03:29;;;;;;;3.25;1.08;;;;;;;18.31;40.03;101413.28;5397803;26;20012;-69
2024/04/18 01:05:55;;;;;;;2.33;1.00;;;;;;;18.31;40.23;101421.19;5400066;26;20875;-70
2024/04/18 01:08:20;;;;;;;3.10;1.00;;;;;;;18.30;39.97;101416.84;5399890;26;20028;-69
2024/04/18 01:10:46;;;;;;;2.55;1.00;;;;;;;18.35;40.15;101430.53;5399080;26;19995;-69
2024/04/18 01:13:11;;;;;;;1.70;0.90;;;;;;;18.20;40.22;101419.31;5400226;26;20436;-71
2024/04/18 01:15:36;;;;;;;1.88;0.90;;;;;;;18.29;40.07;101444.19;5398670;26;20006;-70
2024/04/18 01:18:02;;;;;;;1.85;0.80;;;;;;;18.21;40.13;101426.25;5399687;26;20007;-72
2024/04/18 01:20:27;;;;;;;1.75;1.00;;;;;;;18.28;40.12;101434.59;5398417;26;20007;-71
2024/04/18 01:22:53;;;;;;;2.13;0.90;;;;;;;18.15;40.14;101418.81;5399444;26;19991;-70
2024/04/18 01:25:18;;;;;;;2.33;1.00;;;;;;;18.15;40.24;101420.59;5399861;26;20330;-72
2024/04/18 01:27:43;;;;;;;2.78;1.00;;;;;;;18.23;40.50;101434.06;5399826;26;19998;-70
2024/04/18 01:30:09;;;;;;;2.33;1.00;;;;;;;18.27;40.31;101443.47;5396932;26;20781;-69
2024/04/18 01:32:35;;;;;;;2.08;1.08;;;;;;;18.23;40.22;101444.63;5399770;26;20068;-70
2024/04/18 01:35:01;;;;;;;2.63;1.05;;;;;;;18.28;40.13;101464.47;5397662;26;20006;-70
2024/04/18 01:37:27;;;;;;;2.13;0.98;;;;;;;18.16;40.48;101443.41;5399573;26;20006;-69
2024/04/18 01:39:52;;;;;;;2.90;1.23;;;;;;;18.26;40.07;101471.66;5397228;26;19996;-69
2024/04/18 01:42:17;;;;;;;2.05;0.90;;;;;;;18.26;40.42;101470.78;5400024;26;20438;-71
2024/04/18 01:44:46;;;;;;;2.38;1.10;;;;;;;18.22;40.23;101469.34;5396984;26;19992;-70
2024/04/18 01:47:12;;;;;;;2.50;1.10;;;;;;;18.15;40.37;101452.25;5399375;26;20000;-69
2024/04/18 01:49:38;;;;;;;4.05;1.00;;;;;;;18.12;40.20;101451.53;5398057;26;20005;-71
2024/04/18 01:52:04;;;;;;;2.05;0.90;;;;;;;18.22;40.50;101469.34;5398734;26;19999;-71
2024/04/18 01:54:30;;;;;;;2.72;1.02;;;;;;;18.24;40.20;101476.16;5398850;26;20007;-70
2024/04/18 01:56:55;;;;;;;2.45;0.90;;;;;;;18.23;40.50;101478.91;5397532;26;19996;-72
2024/04/18 01:59:21;;;;;;;2.25;1.00;;;;;;;18.16;40.47;101475.06;5399022;26;20096;-69
2024/04/18 02:01:46;;;;;;;2.63;1.20;;;;;;;18.15;40.28;101471.59;5396905;26;21221;-69
2024/04/18 02:04:11;;;;;;;2.05;1.00;;;;;;;18.12;40.56;101470.00;5398447;26;19996;-71
2024/04/18 02:06:36;;;;;;;1.60;0.80;;;;;;;18.12;40.54;101477.91;5399521;26;19987;-69
2024/04/18 02:09:02;;;;;;;1.58;0.80;;;;;;;18.06;40.43;101473.06;5399077;26;19995;-71
2024/04/18 02:11:27;;;;;;;2.80;1.00;;;;;;;18.09;40.16;101472.00;5398938;26;20579;-69
2024/04/18 02:13:52;;;;;;;2.65;0.98;;;;;;;18.09;40.15;101479.94;5398584;26;20002;-71
2024/04/18 02:16:18;;;;;;;2.13;0.90;;;;;;;18.06;40.58;101473.06;5399621;26;19993;-69
2024/04/18 02:18:43;;;;;;;1.98;0.90;;;;;;;18.16;40.53;101498.78;5396763;26;20468;-71
2024/04/18 02:21:08;;;;;;;1.70;1.00;;;;;;;18.17;40.61;101503.97;5398970;26;19991;-70
2024/04/18 02:23:34;;;;;;;2.17;0.98;;;;;;;18.09;40.52;101495.75;5399216;26;19991;-70
2024/04/18 02:25:59;;;;;;;2.22;1.00;;;;;;;18.17;40.39;101508.41;5398085;26;20007;-69
2024/04/18 02:28:24;;;;;;;1.65;0.95;;;;;;;18.16;40.44;101509.34;5398742;26;20007;-70
2024/04/18 02:30:50;;;;;;;2.17;0.95;;;;;;;18.01;40.33;101485.75;5399064;26;20085;-68
2024/04/18 02:33:15;;;;;;;1.80;0.88;;;;;;;18.03;40.50;101498.81;5398674;26;19991;-68
2024/04/18 02:35:41;;;;;;;2.70;0.93;;;;;;;18.16;40.44;101512.81;5398911;26;20071;-68
2024/04/18 02:38:06;;;;;;;2.05;0.95;;;;;;;18.15;40.59;101519.06;5398744;26;20120;-68
2024/04/18 02:40:32;;;;;;;3.20;1.20;;;;;;;18.15;40.53;101518.19;5398620;26;19991;-69
2024/04/18 02:42:57;;;;;;;1.45;0.88;;;;;;;18.05;40.57;101507.47;5398201;26;20069;-69
2024/04/18 02:45:22;;;;;;;2.33;1.00;;;;;;;17.98;40.41;101501.78;5399069;26;20003;-70
2024/04/18 02:47:50;;;;;;;2.22;0.90;;;;;;;17.93;40.62;101496.81;5397718;26;19992;-69
2024/04/18 02:50:15;;;;;;;1.98;1.00;;;;;;;18.09;40.42;101530.03;5398097;26;20337;-69
2024/04/18 02:52:40;;;;;;;2.03;0.90;;;;;;;17.97;40.78;101512.44;5398821;26;19995;-71
2024/04/18 02:55:06;;;;;;;1.90;0.93;;;;;;;18.00;40.29;101514.84;5398431;26;20007;-69
2024/04/18 02:57:31;;;;;;;1.90;0.80;;;;;;;18.09;40.83;101536.16;5395814;26;19995;-71
2024/04/18 02:59:59;;;;;;;2.70;1.00;;;;;;;17.89;40.52;101505.06;5396722;26;20003;-69
2024/04/18 03:02:25;;;;;;;1.70;0.80;;;;;;;18.09;40.42;101540.59;5397385;26;20032;-69
2024/04/18 03:04:50;;;;;;;1.38;0.82;;;;;;;17.98;40.49;101527.31;5397850;26;19995;-69
2024/04/18 03:07:16;;;;;;;1.70;0.95;;;;;;;17.98;40.44;101527.31;5399091;26;20402;-69
2024/04/18 03:09:41;;;;;;;1.92;0.90;;;;;;;18.08;40.31;101549.44;5395895;26;20010;-71
2024/04/18 03:12:06;;;;;;;1.52;0.73;;;;;;;17.68;40.67;101494.19;5398968;26;20395;-68
2024/04/18 03:14:32;;;;;;;2.05;0.90;;;;;;;18.02;40.45;101542.78;5397714;26;20340;-70
2024/04/18 03:16:57;;;;;;;1.52;0.88;;;;;;;18.00;40.19;101551.78;5397934;26;20007;-71
2024/04/18 03:19:22;;;;;;;3.38;1.00;;;;;;;17.90;40.42;101536.59;5396642;26;19995;-71
2024/04/18 03:21:48;;;;;;;1.85;1.00;;;;;;;18.00;40.75;101557.06;5397712;26;20007;-72
2024/04/18 03:24:18;;;;;;;1.35;0.75;;;;;;;17.95;40.29;101547.66;5398036;26;20006;-69
2024/04/18 03:26:44;;;;;;;2.42;1.08;;;;;;;17.85;40.34;101529.91;5397917;26;19999;-70
2024/04/18 03:29:11;;;;;;;1.63;0.80;;;;;;;17.92;40.30;101545.22;5396346;26;20039;-69
2024/04/18 03:31:36;;;;;;;1.63;0.90;;;;;;;17.94;40.14;101548.63;5456749;26;20509;-69
2024/04/18 03:34:01;;;;;;;2.38;0.90;;;;;;;17.92;40.42;101553.13;5397825;26;20081;-69
2024/04/18 03:36:27;;;;;;;2.20;0.98;;;;;;;17.92;40.09;101547.88;5396146;26;19995;-69
2024/04/18 03:38:53;;;;;;;1.60;0.90;;;;;;;17.92;40.12;101555.78;5399980;26;20002;-69
2024/04/18 03:41:18;;;;;;;1.75;0.80;;;;;;;17.96;40.19;101566.97;5401478;26;20618;-68
2024/04/18 03:43:44;;;;;;;2.13;0.95;;;;;;;17.93;40.18;101562.75;5400494;26;20330;-70
2024/04/18 03:46:09;;;;;;;1.88;0.80;;;;;;;18.00;40.08;101575.50;5401598;26;20456;-70
2024/04/18 03:48:34;;;;;;;1.48;0.70;;;;;;;17.88;40.25;101561.38;5401027;26;20027;-68
2024/04/18 03:51:00;;;;;;;1.98;0.93;;;;;;;17.99;40.56;101579.97;5400732;26;20445;-73
2024/04/18 03:53:25;;;;;;;1.52;0.82;;;;;;;17.86;40.09;101565.88;5401187;26;20058;-68
2024/04/18 03:55:51;;;;;;;1.90;0.90;;;;;;;17.90;40.20;101581.41;5400932;26;20011;-69
2024/04/18 03:58:16;;;;;;;1.90;0.90;;;;;;;17.97;40.10;101589.75;5400779;26;20006;-70
2024/04/18 04:00:41;;;;;;;1.50;0.70;;;;;;;17.82;40.03;101569.69;5400153;26;20074;-71
2024/04/18 04:03:07;;;;;;;2.10;1.05;;;;;;;17.84;39.98;101578.34;5399131;26;19996;-70
2024/04/18 04:05:32;;;;;;;1.38;0.70;;;;;;;17.86;40.04;101581.69;5400535;26;19995;-69
2024/04/18 04:08:00;;;;;;;1.75;0.80;;;;;;;17.82;40.10;101580.25;5398828;26;19992;-69
2024/04/18 04:10:25;;;;;;;1.45;0.70;;;;;;;17.72;39.94;101564.19;5400922;26;20456;-69
2024/04/18 04:12:51;;;;;;;1.70;0.80;;;;;;;17.86;39.58;101594.88;5400290;26;19996;-71
2024/04/18 04:15:16;;;;;;;1.98;0.80;;;;;;;17.93;40.11;101612.03;5401095;26;20023;-69
2024/04/18 04:17:48;;;;;;;1.83;0.77;;;;;;;17.93;39.95;101617.31;5401160;26;20890;-71
2024/04/18 04:20:13;;;;;;;1.77;0.73;;;;;;;17.82;39.74;101598.69;5400617;26;19996;-69
2024/04/18 04:22:39;;;;;;;1.33;0.70;;;;;;;17.86;39.87;101608.06;5428788;26;19992;-71
2024/04/18 04:25:04;;;;;;;2.22;1.10;;;;;;;17.84;39.95;101612.63;5399853;26;20003;-72
2024/04/18 04:27:29;;;;;;;2.03;0.90;;;;;;;17.86;40.02;101618.63;5400901;26;20600;-70
2024/04/18 04:29:55;;;;;;;1.25;0.70;;;;;;;17.90;39.95;101636.81;5400354;26;20411;-68
2024/04/18 04:32:21;;;;;;;1.92;0.80;;;;;;;17.88;39.55;101645.75;5400572;26;20369;-69
2024/04/18 04:34:48;;;;;;;1.65;0.60;;;;;;;17.85;39.87;101638.00;5400264;26;20660;-69
2024/04/18 04:37:15;;;;;;;1.55;0.73;;;;;;;17.87;39.56;101649.31;5400964;26;20007;-73
2024/04/18 04:39:40;;;;;;;1.73;0.75;;;;;;;17.88;40.04;101651.88;5399724;26;20429;-69
2024/04/18 04:42:05;;;;;;;1.73;0.80;;;;;;;17.82;39.88;101646.16;5400400;26;20064;-73
2024/04/18 04:44:30;;;;;;;1.65;0.75;;;;;;;17.83;39.65;101651.31;5400636;26;20064;-69
2024/04/18 04:46:56;;;;;;;1.40;0.70;;;;;;;17.87;40.11;101662.50;5399603;26;20060;-71
2024/04/18 04:49:21;;;;;;;1.48;0.75;;;;;;;17.75;39.85;101641.28;5398710;26;20554;-68
2024/04/18 04:51:47;;;;;;;1.73;0.90;;;;;;;17.81;39.68;101647.09;5400059;26;19991;-69
2024/04/18 04:54:12;;;;;;;1.15;0.60;;;;;;;17.70;39.80;101638.09;5396623;26;20348;-68
2024/04/18 04:56:37;;;;;;;1.75;0.70;;;;;;;17.70;40.01;101643.38;5400264;26;20003;-70
2024/04/18 04:59:03;;;;;;;1.42;0.77;;;;;;;17.80;40.06;101663.84;5400061;26;19999;-69
2024/04/18 05:01:28;;;;;;;1.67;0.70;;;;;;;17.88;40.33;101680.03;5399144;26;19995;-68
2024/04/18 05:03:53;;;;;;;1.70;0.85;;;;;;;17.85;40.21;101680.19;5397394;26;20032;-69
2024/04/18 05:06:19;;;;;;;1.23;0.68;;;;;;;17.75;40.83;101665.03;5400185;26;20209;-69
2024/04/18 05:08:45;;;;;;;1.92;0.60;;;;;;;17.87;40.61;101687.06;5399345;26;20816;-69
2024/04/18 05:11:10;;;;;;;0.85;0.50;;;;;;;17.84;40.59;101676.72;5400232;26;19991;-68
2024/04/18 05:13:35;;;;;;;1.10;0.60;;;;;;;17.79;40.66;101663.00;5400348;26;19996;-68
2024/04/18 05:16:01;;;;;;;1.10;0.50;;;;;;;17.91;40.50;101682.47;5398585;26;19999;-69
2024/04/18 05:18:26;;;;;;;0.77;0.50;;;;;;;18.00;40.52;101692.41;5400289;26;20041;-69
2024/04/18 05:20:51;;;;;;;1.02;0.60;;;;;;;17.94;40.75;101680.50;5399236;26;19999;-69
2024/04/18 05:23:17;;;;;;;1.30;0.50;;;;;;;18.12;40.08;101707.41;5399416;26;20015;-70
2024/04/18 05:25:42;;;;;;;1.33;0.60;;;;;;;18.12;40.42;101706.56;5399341;26;20006;-70
2024/04/18 05:28:12;;;;;;;1.08;0.50;;;;;;;18.06;40.52;101694.63;5399173;26;20353;-69
2024/04/18 05:31:11;;;;;;;1.63;0.60;;;;;;;18.19;40.44;101715.75;5396709;26;20322;-70
2024/04/18 05:33:33;;;;;;;2.10;0.68;;;;;;;18.10;40.30;101704.03;5398156;26;19991;-71
2024/04/18 05:35:59;;;;;;;1.10;0.68;;;;;;;18.17;40.29;101714.19;5399203;26;20433;-70
2024/04/18 05:38:25;;;;;;;2.55;1.10;;;;;;;18.23;40.30;101721.66;5399936;26;19999;-69
2024/04/18 05:40:51;;;;;;;2.60;1.40;;;;;;;18.24;40.23;101724.19;5398936;26;20465;-69
2024/04/18 05:43:16;;;;;;;3.42;1.60;;;;;;;18.21;40.30;101721.75;5399348;26;20014;-71
2024/04/18 05:45:52;;;;;;;3.20;1.65;;;;;;;18.27;40.26;101733.69;5399072;26;20065;-70
2024/04/18 05:48:17;;;;;;;3.00;1.63;;;;;;;18.27;40.28;101731.91;5399800;26;19992;-71
2024/04/18 05:50:43;;;;;;;3.42;1.80;;;;;;;18.31;40.15;101732.56;5398632;26;20570;-70
2024/04/18 05:53:08;;;;;;;4.10;2.03;;;;;;;18.34;40.01;101742.03;5398152;26;20445;-70
2024/04/18 05:55:33;;;;;;;3.17;1.75;;;;;;;18.18;40.18;101715.84;5399124;26;19996;-69
2024/04/18 05:57:59;;;;;;;3.67;1.85;;;;;;;18.39;39.65;101754.00;5396712;26;19995;-69
2024/04/18 06:00:25;;;;;;;3.63;2.03;;;;;;;18.36;40.17;101741.00;5398829;26;19991;-70
2024/04/18 06:02:50;;;;;;;2.90;1.50;;;;;;;18.33;40.50;101737.72;5396756;26;20279;-72
2024/04/18 06:05:15;;;;;;;3.30;1.77;;;;;;;18.37;40.09;101747.09;5398304;26;20465;-68
2024/04/18 06:07:41;;;;;;;3.05;1.77;;;;;;;18.46;40.00;101770.25;5399428;26;20813;-70
2024/04/18 06:10:06;;;;;;;2.75;1.38;;;;;;;18.41;40.39;101764.44;5399338;26;20073;-69
2024/04/18 06:12:33;;;;;;;3.13;1.85;;;;;;;18.46;39.90;101771.06;5398821;26;20377;-69
2024/04/18 06:14:58;;;;;;;2.65;1.55;;;;;;;18.41;40.06;101765.28;5399432;26;19996;-70
2024/04/18 06:17:23;;;;;;;2.60;1.42;;;;;;;18.40;40.20;101763.56;5398077;26;20008;-70
2024/04/18 06:19:52;;;;;;;3.03;1.67;;;;;;;18.39;40.26;101772.47;5397469;26;20364;-70
2024/04/18 06:22:17;;;;;;;3.13;1.60;;;;;;;18.51;40.07;101791.03;5396556;26;20437;-69
2024/04/18 06:24:43;;;;;;;3.10;1.55;;;;;;;18.50;40.02;101798.13;5393777;26;20010;-70
2024/04/18 06:27:09;;;;;;;3.13;1.50;;;;;;;18.37;40.14;101781.41;5395684;26;20053;-69
2024/04/18 06:29:34;;;;;;;2.75;1.50;;;;;;;18.45;39.98;101792.28;5397222;26;20012;-71
2024/04/18 06:31:59;;;;;;;2.42;1.55;;;;;;;18.45;39.83;101797.56;5398316;26;20543;-69
2024/04/18 06:34:25;;;;;;;2.83;1.50;;;;;;;18.43;40.11;101795.03;5396454;26;20534;-71
2024/04/18 06:36:50;;;;;;;2.65;1.48;;;;;;;18.48;39.80;101807.94;5398992;26;20049;-70
2024/04/18 06:39:15;;;;;;;2.67;1.33;;;;;;;18.51;39.84;101815.63;5398669;26;19996;-69
2024/04/18 06:41:41;;;;;;;2.60;1.30;;;;;;;18.47;40.09;101808.91;5398848;26;20007;-70
2024/04/18 06:44:06;;;;;;;3.00;1.60;;;;;;;18.41;40.01;101799.59;5398649;26;20000;-69
2024/04/18 06:46:32;;;;;;;3.08;1.52;;;;;;;18.40;40.22;101797.88;5398646;26;20023;-69
2024/04/18 06:48:57;;;;;;;2.95;1.30;;;;;;;18.44;40.40;101799.38;5398034;26;20072;-69
2024/04/18 06:51:22;;;;;;;2.63;1.20;;;;;;;18.37;40.71;101791.97;5398810;26;20068;-70
2024/04/18 06:53:48;;;;;;;3.53;1.45;;;;;;;18.52;40.59;101822.63;5398061;26;19995;-69
2024/04/18 06:56:13;;;;;;;2.15;1.20;;;;;;;18.54;40.96;101820.72;5398945;26;19999;-71
2024/04/18 06:58:38;;;;;;;2.20;1.15;;;;;;;18.58;41.03;101830.13;5397342;26;20364;-69
2024/04/18 07:01:04;;;;;;;2.97;1.20;;;;;;;18.48;40.98;101810.56;5397153;26;20018;-70
2024/04/18 07:03:30;;;;;;;3.92;0.95;;;;;;;18.59;40.97;101830.97;5396320;26;20041;-70
2024/04/18 07:05:56;;;;;;;2.38;1.17;;;;;;;18.57;41.01;101830.22;5398737;26;21600;-70
2024/04/18 07:08:24;;;;;;;3.33;1.27;;;;;;;18.57;41.29;101831.06;5397892;26;19991;-71
2024/04/18 07:10:49;;;;;;;3.17;1.30;;;;;;;18.56;41.02;101828.53;5398024;26;20340;-70
2024/04/18 07:13:14;;;;;;;2.58;1.10;;;;;;;18.58;41.25;101831.91;5397503;26;20395;-72
2024/04/18 07:15:39;;;;;;;4.05;1.10;;;;;;;18.64;41.42;101849.97;5397738;26;19995;-69
2024/04/18 07:18:05;;;;;;;2.08;1.00;;;;;;;18.64;41.24;101848.19;5397105;26;19999;-72
2024/04/18 07:20:30;;;;;;;3.30;1.00;;;;;;;18.54;41.47;101825.16;5398157;26;19999;-70
2024/04/18 07:22:56;;;;;;;2.22;1.10;;;;;;;18.62;41.46;101843.97;5397955;26;21422;-70
2024/04/18 07:25:21;;;;;;;1.60;0.90;;;;;;;18.57;41.75;101836.34;5398443;26;19995;-68
2024/04/18 07:27:48;;;;;;;3.35;1.20;;;;;;;18.53;41.86;101826.09;5395838;26;19996;-70
2024/04/18 07:30:15;;;;;;;2.92;1.38;;;;;;;18.61;42.06;101845.78;5398008;26;20003;-72
2024/04/18 07:32:40;;;;;;;2.22;1.33;;;;;;;18.69;41.95;101861.06;5397954;26;20000;-69
2024/04/18 07:35:06;;;;;;;2.58;1.02;;;;;;;18.58;41.96;101847.75;5394788;26;20042;-70
2024/04/18 07:37:31;;;;;;;4.47;0.90;;;;;;;18.65;42.06;101849.03;5397861;26;20425;-70
2024/04/18 07:39:59;;;;;;;3.00;1.20;;;;;;;18.61;42.23;101847.53;5397873;26;20433;-69
2024/04/18 07:42:25;;;;;;;2.38;1.00;;;;;;;18.60;42.29;101843.22;5397798;26;20008;-69
2024/04/18 07:44:50;;;;;;;2.63;1.00;;;;;;;18.67;42.28;101855.91;5397649;26;20061;-70
2024/04/18 07:47:15;;;;;;;1.98;0.90;;;;;;;18.73;42.30;101870.47;5397919;26;20009;-70
2024/04/18 07:49:41;;;;;;;2.53;0.80;;;;;;;18.58;42.27;101843.34;5397609;26;20003;-70
2024/04/18 07:52:10;;;;;;;2.15;0.80;;;;;;;18.68;42.19;101865.50;5397693;26;19996;-69
2024/04/18 07:54:36;;;;;;;1.88;0.85;;;;;;;18.77;42.19;101871.09;5397578;26;20461;-70
2024/04/18 07:57:01;;;;;;;2.47;0.90;;;;;;;18.64;42.35;101858.75;5396328;26;19996;-70
2024/04/18 07:59:27;;;;;;;2.75;0.90;;;;;;;18.76;42.33;101875.56;5397979;26;19995;-69
2024/04/18 08:01:52;;;;;;;2.15;0.90;;;;;;;18.76;42.20;101880.00;5395623;26;19996;-70
2024/04/18 08:04:17;;;;;;;4.28;1.20;;;;;;;18.79;42.38;101883.28;5397267;26;19992;-70
2024/04/18 08:06:42;;;;;;;2.75;0.90;;;;;;;18.71;42.30;101867.09;5395398;26;20002;-73
2024/04/18 08:09:08;;;;;;;2.08;0.90;;;;;;;18.70;42.08;101856.66;5396414;26;20458;-69
2024/04/18 08:11:33;;;;;;;1.77;0.77;;;;;;;18.78;42.32;101870.19;5396507;26;19996;-70
2024/04/18 08:13:58;;;;;;;2.95;0.88;;;;;;;18.80;42.22;101871.78;5395883;26;20007;-69
2024/04/18 08:16:24;;;;;;;1.77;0.80;;;;;;;18.82;42.30;101888.34;5394972;26;20445;-70
2024/04/18 08:18:49;;;;;;;1.88;0.90;;;;;;;18.83;42.22;101884.78;5396563;26;20330;-68
2024/04/18 08:21:14;;;;;;;1.77;0.90;;;;;;;18.83;41.88;101897.09;5396986;26;20649;-70
2024/04/18 08:23:40;;;;;;;4.68;1.15;;;;;;;18.76;42.12;101886.13;5398472;26;19991;-69
2024/04/18 08:26:05;;;;;;;2.88;0.80;;;;;;;18.74;42.35;101895.09;5399607;26;20253;-70
2024/04/18 08:28:30;;;;;;;2.45;1.20;;;;;;;18.61;42.23;101877.44;5401248;26;20003;-70
2024/04/18 08:30:56;;;;;;;3.05;0.90;;;;;;;18.65;42.38;101892.13;5400168;26;19991;-69
2024/04/18 08:33:21;;;;;;;3.97;1.15;;;;;;;18.63;42.20;101886.09;5401165;26;19995;-69
2024/04/18 08:35:46;;;;;;;2.58;0.90;;;;;;;18.58;42.31;101882.94;5400229;26;19996;-68
2024/04/18 08:38:12;;;;;;;12.80;1.55;;;;;;;18.77;42.38;101908.09;5400451;26;20015;-69
2024/04/18 08:40:38;;;;;;;1.50;0.80;;;;;;;18.65;42.40;101893.91;5400198;26;20089;-70
2024/04/18 08:43:04;;;;;;;2.40;0.88;;;;;;;18.67;42.45;101898.16;5400692;26;19999;-70
2024/04/18 08:45:36;;;;;;;2.53;0.90;;;;;;;18.68;42.10;101901.63;5400622;26;20005;-70
2024/04/18 08:48:05;;;;;;;2.10;0.93;;;;;;;18.74;42.44;101910.94;5400674;26;19995;-71
2024/04/18 08:50:31;;;;;;;1.83;0.65;;;;;;;18.78;42.41;101915.06;5400054;26;19995;-69
2024/04/18 08:52:57;;;;;;;2.33;0.70;;;;;;;18.79;42.61;101917.59;5391854;26;20043;-71
2024/04/18 08:55:23;;;;;;;2.83;0.70;;;;;;;18.70;42.28;101896.25;5397761;26;20010;-68
2024/04/18 08:57:52;;;;;;;2.20;0.65;;;;;;;18.80;42.23;101919.31;5397325;26;20003;-70
2024/04/18 09:00:17;;;;;;;3.30;0.75;;;;;;;18.70;42.31;101902.38;5398908;26;20004;-69
2024/04/18 09:02:44;;;;;;;2.55;0.73;;;;;;;18.76;42.34;101911.69;5396943;26;20381;-70
2024/04/18 09:05:10;;;;;;;2.30;0.80;;;;;;;18.77;42.31;101914.22;5397432;26;20041;-68
2024/04/18 09:07:35;;;;;;;2.92;1.33;;;;;;;18.84;42.31;101923.44;5397707;26;19995;-69
2024/04/18 09:10:07;;;;;;;3.25;0.80;;;;;;;18.82;42.30;101919.22;5397321;26;20628;-71
2024/04/18 09:12:36;;;;;;;2.35;0.80;;;;;;;18.62;42.41;101900.25;5399546;26;19995;-69
2024/04/18 09:15:03;;;;;;;2.95;0.60;;;;;;;18.80;42.49;101935.16;5396983;26;20018;-71
2024/04/18 09:17:29;;;;;;;1.67;0.70;;;;;;;18.77;42.64;101926.56;5398001;26;20355;-70
2024/04/18 09:19:54;;;;;;;5.60;1.20;;;;;;;18.89;42.60;101946.91;5397711;26;20434;-71
2024/04/18 09:22:21;;;;;;;2.70;0.75;;;;;;;18.80;42.71;101932.50;5395154;26;19999;-70
2024/04/18 09:24:46;;;;;;;1.55;0.55;;;;;;;18.89;42.46;101943.44;5397673;26;19996;-70
2024/04/18 09:27:13;;;;;;;4.70;0.85;;;;;;;18.79;42.54;101929.97;5395679;26;19999;-72
2024/04/18 09:29:39;;;;;;;1.35;0.60;;;;;;;18.78;42.41;101926.47;5397618;26;20011;-70
2024/04/18 09:32:06;;;;;;;1.95;0.70;;;;;;;18.91;42.45;101950.28;5397325;26;20011;-68
2024/04/18 09:34:34;;;;;;;1.92;0.65;;;;;;;18.87;42.29;101946.19;5396928;26;20024;-70
2024/04/18 09:37:04;;;;;;;3.20;0.88;;;;;;;18.80;42.50;101940.44;5397728;26;20440;-70
2024/04/18 09:39:32;;;;;;;2.00;0.70;;;;;;;18.78;42.27;101938.84;5397283;26;20326;-70
2024/04/18 09:42:12;;;;;;;1.88;0.70;;;;;;;18.81;42.01;101941.28;5453522;26;20418;-72
2024/04/18 09:44:42;;;;;;;1.90;0.68;;;;;;;18.80;42.17;101945.72;5395364;26;20825;-70
2024/04/18 09:47:09;;;;;;;1.55;0.68;;;;;;;18.81;42.23;101941.28;5395878;26;19996;-68
2024/04/18 09:49:36;;;;;;;1.35;0.52;;;;;;;18.80;42.22;101940.44;5399020;26;20006;-72
2024/04/18 09:52:02;;;;;;;2.83;0.70;;;;;;;18.80;42.09;101939.56;5396730;26;20045;-72
2024/04/18 09:54:27;;;;;;;3.75;0.70;;;;;;;18.87;42.11;101945.31;5396871;26;20505;-72
2024/04/18 09:56:54;;;;;;;1.92;0.80;;;;;;;18.94;42.18;101959.81;5395545;26;20116;-70
2024/04/18 09:59:21;;;;;;;2.60;0.70;;;;;;;18.94;41.94;101951.91;5396778;26;19992;-71
2024/04/18 10:01:47;;;;;;;1.48;0.60;;;;;;;18.90;42.09;101951.25;5396248;26;20007;-72
2024/04/18 10:04:13;;;;;;;1.80;0.70;;;;;;;18.86;42.15;101944.47;5391738;26;20000;-69
2024/04/18 10:06:41;;;;;;;2.85;0.70;;;;;;;18.83;42.14;101936.72;5392910;26;20006;-69
2024/04/18 10:09:07;;;;;;;1.17;0.60;;;;;;;18.79;42.19;101922.88;5395302;26;20003;-71
2024/04/18 10:11:33;;;;;;;3.00;0.73;;;;;;;18.80;42.44;101924.59;5396724;26;20041;-71
2024/04/18 10:14:03;;;;;;;2.13;0.90;;;;;;;18.89;42.38;101932.88;5398203;26;19999;-70
2024/04/18 10:16:29;;;;;;;2.38;0.90;;;;;;;18.81;42.32;101920.16;5380487;26;20349;-70
2024/04/18 10:18:55;;;;;;;2.55;0.65;;;;;;;18.95;42.16;101950.94;5395053;26;20000;-68
2024/04/18 10:21:20;;;;;;;2.15;0.70;;;;;;;18.95;42.03;101948.31;5397121;26;20338;-69
2024/04/18 10:23:50;;;;;;;1.97;0.80;;;;;;;18.85;42.53;101929.59;5396049;26;20446;-66
2024/04/18 10:26:18;;;;;;;2.10;0.70;;;;;;;18.90;42.31;101937.19;5398475;26;20232;-67
2024/04/18 10:28:44;;;;;;;2.10;0.50;;;;;;;18.93;42.26;101934.34;5397563;26;20008;-69
2024/04/18 10:31:11;;;;;;;3.22;0.60;;;;;;;18.96;42.15;101945.56;5399100;26;20125;-67
2024/04/18 10:33:40;;;;;;;4.15;0.60;;;;;;;18.83;42.47;101924.38;5398075;26;19995;-66
2024/04/18 10:36:16;;;;;;;2.03;0.60;;;;;;;18.94;42.09;101943.97;5398789;26;20035;-67
2024/04/18 10:38:48;;;;;;;3.17;0.75;;;;;;;18.81;42.51;101928.91;5397861;26;20113;-71
2024/04/18 10:41:15;;;;;;;3.25;0.80;;;;;;;18.77;42.41;101931.84;5399262;26;20010;-68
2024/04/18 10:43:41;;;;;;;2.55;0.70;;;;;;;18.91;42.08;101947.66;5393192;26;20000;-70
2024/04/18 10:46:12;;;;;;;3.63;0.80;;;;;;;18.85;42.34;101942.81;5393959;26;20003;-72
2024/04/18 10:48:38;;;;;;;3.42;1.02;;;;;;;18.85;42.29;101941.00;5394886;26;20456;-69
2024/04/18 10:51:04;;;;;;;3.00;0.60;;;;;;;18.90;42.12;101953.03;5396861;26;20003;-71
2024/04/18 10:53:34;;;;;;;2.47;0.70;;;;;;;18.82;42.31;101941.16;5394943;26;20587;-71
2024/04/18 10:55:59;;;;;;;3.72;0.68;;;;;;;18.78;42.47;101929.09;5395023;26;20855;-72
2024/04/18 10:58:26;;;;;;;2.42;0.70;;;;;;;18.83;42.14;101940.22;5396303;26;20902;-70
2024/04/18 11:01:04;;;;;;;1.77;0.55;;;;;;;18.92;42.05;101956.44;5394838;26;20003;-72
2024/04/18 11:03:30;;;;;;;2.97;0.80;;;;;;;18.78;42.07;101933.56;5392960;26;20334;-71
2024/04/18 11:05:56;;;;;;;2.63;0.73;;;;;;;18.90;42.20;101953.03;5397175;26;20019;-70
2024/04/18 11:08:24;;;;;;;2.13;0.70;;;;;;;18.71;42.42;101919.06;5396468;26;20372;-70
2024/04/18 11:10:49;;;;;;;3.25;0.80;;;;;;;18.92;42.24;101964.38;5396270;26;20071;-69
2024/04/18 11:13:15;;;;;;;2.58;0.60;;;;;;;18.91;42.31;101963.50;5393614;26;20003;-70
2024/04/18 11:15:41;;;;;;;1.65;0.43;;;;;;;18.84;42.33;101955.16;5397155;26;20004;-70
2024/04/18 11:18:06;;;;;;;1.35;0.60;;;;;;;18.93;42.21;101966.91;5398433;26;20011;-70